Aérodrome :
LOGIN :

S'inscrire | Disclaimer

   EN    FR    IT 

 










Légende :    VFR   VFR Marginal   IFR   IFR Intensif   IFR Très Intensif
Visi : 
Plafond : 
>= 8 km
>= 3000ft
5 à 8 km
1000 à 3000 ft
1500m à 5 km
500 à 1000 ft
800 à 1500m
200 à 500 ft
< 800m
< 200 ft
Symboles :   Orages  Brouillard  Fortes neiges  Fortes précipitations  Vent > 20 kt
SIGMETs :   Divers  Orages  Givrage  Turbulence  Onde Orograph.  Cendres Volcan.







- Altitude de l'aérodrome : 741 ft
- Code IATA : PED


LKPD - Pardubice AB

DERNIER METAR :
  • 170900Z 12003KT 4000 BR NSC 02/M01 Q1028 BECMG FM0930 TL1000 5000 BR RMK GRN WHT

METARs EXPIRÉS :
  • 170841Z 10002KT 4000 BR NSC 01/M01 Q1028 RMK GRN
  • 170800Z 00000KT 3000 BR NSC M01/M02 Q1028 BECMG FM0830 TL0930 4000 BR RMK YLO GRN
  • 170700Z VRB01KT 2500 BR NSC M03/M04 Q1027 BECMG FM0730 TL0830 4000 BR RMK YLO GRN

TAF TAF LKPD
Valide du 17 à 06h jusqu'au 18 à 06h UTC


170500Z 1706/1806 08002KT 4000 BR NSC
TEMPO 1706/1708 1500 BR
BECMG 1707/1709 CAVOK
BECMG 1721/1722 4000 BR
PROB40
TEMPO 1800/1806 0600 FZFG VV001
Pas de NOTAMs connus pour ce terrain.



MET'MAP, la Météo Aéronautique d'un coup d'oeil ! - Copyright ORBIFLY Décembre 2007 - Disclaimer

ORBIFLY MET'MAP TEAM :

Programmation & Développement : Alexandra Zaïnal
Conception & Développement : Baudouin d'Aumeries
Co-Programmation & Développement : Marc-Olivier Méhu
Soutien technique & logistique : Manuel Goepfert

Contact : metmap@orbifly.com




SOURCES & CREDITS :

   NOAA